Huvudsida
METAR-TAF:

METAR-TAF

Flygplatser :

London City Airport

London, England

latitud: 51-30N, longitud: 000-03E, höjd: 5 m

Aktuellt väderrapport

Denna rapport gjordes för 16 minuter sedan, klockan 05:50 UTC
Vind 3 kt varierande vindriktning
Temperatur 15°C
Fuktighet 67%
Tryck 1015 hPa
Sikt 10 km eller mer
Få moln på en höjd av 3600 ft

METAR: EGLC 150550Z AUTO VRB03KT 9999 FEW036 15/09 Q1015

Tid: 07:06 (06:06 UTC)

Väderprognos

Denna rapport gjordes för 4 timmar och 8 minuter sedan, klockan 01:58 UTC
Prognos gäller från 15 kl. 03 UTC till 15 kl. 12 UTC
Vind 6 kt från nord/nordväst
Sikt 10 km eller mer
Få moln på en höjd av 4000 ft
Blir
från 15 kl. 08 UTC till 15 kl. 11 UTC
Vind 10 kt från väst

TAF: EGLC 150158Z 1503/1512 33006KT 9999 FEW040 BECMG 1508/1511 26010KT

Aktuella väderrapporter och prognoser från 4000 flygplatser (METAR- och TAF-rapporter).

De tillgängliga stationerna syns som gula och röda prickar på kartan.

För musen över prickarna för att se namnen på stationerna.

Klicka sedan för att få väderrapporter och prognoser.

För att ändra kartan: Klicka på de gröna knapparna med ett svart kors på för att zooma in; den gröna knappen med ett streck på för att zooma ut; eller på de gröna pilarna för angränsande kartor.


METAR-TAF: